Ponta Porã Airport
SBPP : now visible

Airfield :











YOU CAN JOIN US ON...

 
LOGIN :

Register | Disclaimer

   EN    FR    IT 

 









Legend :    VFR   Marginal VFR   IFR   Intensive IFR   Very Intensive IFR
Visi :
Ceiling :
>= 8 km
>= 3000ft
5 to 8 km
1000 to 3000 ft
1500m to 5 km
500 to 1000 ft
800 to 1500m
200 to 500 ft
< 800m
< 200 ft
Symbols :   Thunderstorms  Fog  Heavy snow  Heavy precipitations  Wind > 20 kt






- Airport Elevation : 2156 ft
- IATA code : PMG


SBPP - Ponta Porã

CURRENT METAR :
  • 032100Z 18008KT CAVOK 22/09 Q1015

EXPIRED METARs :
  • 032000Z 21010KT CAVOK 23/09 Q1015
  • 031900Z 18010KT CAVOK 24/10 Q1015

TAF TAF SBPP
Valid from the 03 at 18:00 until the 04 at 18:00 UTC


031500Z 0318/0418 03008KT 9999 FEW020 TX31/0318Z TN20/0409Z
BECMG 0318/0320 03006KT FEW019
BECMG 0321/0323 FEW020
BECMG 0401/0403 CAVOK
BECMG 0411/0413 03008KT 9999 FEW020
BECMG 0415/0417 SCT020 RMK PDG



MET'MAP, your aeronautical weather chart ! - Copyright ORBIFLY December 2007 - Disclaimer

ORBIFLY MET'MAP TEAM :

Programming & Development : Alexandra Zaïnal
Concept & original design : Baudouin d'Aumeries
Assistance for programming : Marc-Olivier Méhu
Technical & hardware support : Manuel Goepfert

Contact : metmap@orbifly.com




SOURCES & CREDITS :

   NOAA       Earth
Advisory